createdAt,value
2022-11-13T00:00:55.925Z,100346.28
2022-11-13T00:06:02.890Z,100347.03
2022-11-13T00:11:09.515Z,100345.38
2022-11-13T00:16:15.730Z,100344.97
2022-11-13T00:21:20.955Z,100344.41
2022-11-13T00:26:26.934Z,100343.63
2022-11-13T00:31:31.056Z,100341.88
2022-11-13T00:36:34.241Z,100334.91
2022-11-13T00:41:38.881Z,100341.16
2022-11-13T00:46:42.106Z,100353.38
2022-11-13T00:51:45.279Z,100356.63
2022-11-13T00:56:49.840Z,100354.84
2022-11-13T01:01:53.026Z,100352.16
2022-11-13T01:06:56.619Z,100342.13
2022-11-13T01:12:01.262Z,100337.63
2022-11-13T01:17:04.413Z,100336.09
2022-11-13T01:22:07.561Z,100346.53
2022-11-13T01:27:13.349Z,100344.97
2022-11-13T01:32:16.468Z,100333.03
2022-11-13T01:37:19.604Z,100332.19
2022-11-13T01:42:24.209Z,100332.44
2022-11-13T01:47:27.938Z,100333.41
2022-11-13T01:52:33.777Z,100338.91
2022-11-13T01:57:38.434Z,100339.06
2022-11-13T02:02:41.573Z,100346.38
2022-11-13T02:07:44.759Z,100351.50
2022-11-13T02:12:52.302Z,100356.38
2022-11-13T02:17:58.365Z,100363.47
2022-11-13T02:23:10.475Z,100359.00
2022-11-13T02:28:15.053Z,100354.69
2022-11-13T02:33:27.839Z,100364.41
2022-11-13T02:38:31.749Z,100359.06
2022-11-13T02:43:36.379Z,100343.31
2022-11-13T02:48:39.521Z,100340.91
2022-11-13T02:53:42.686Z,100342.72
2022-11-13T02:58:47.233Z,100339.44
2022-11-13T03:03:58.468Z,100321.88
2022-11-13T03:09:01.825Z,100323.56
2022-11-13T03:14:06.392Z,100318.31
2022-11-13T03:19:10.101Z,100320.25
2022-11-13T03:24:13.254Z,100323.56
2022-11-13T03:29:17.974Z,100319.47
2022-11-13T03:34:21.309Z,100323.06
2022-11-13T03:39:24.461Z,100332.81
2022-11-13T03:44:29.024Z,100322.19
2022-11-13T03:49:32.151Z,100318.78
2022-11-13T03:54:35.645Z,100319.78
2022-11-13T03:59:40.224Z,100311.91
2022-11-13T04:04:43.358Z,100300.69
2022-11-13T04:09:46.563Z,100311.22
2022-11-13T04:14:51.140Z,100310.19
2022-11-13T04:19:54.267Z,100310.47
2022-11-13T04:24:57.452Z,100311.56
2022-11-13T04:30:02.083Z,100298.63
2022-11-13T04:35:05.591Z,100293.50
2022-11-13T04:40:10.405Z,100307.50
2022-11-13T04:45:14.947Z,100290.97
2022-11-13T04:50:18.982Z,100286.53
2022-11-13T04:55:22.133Z,100296.13
2022-11-13T05:00:26.753Z,100302.94
2022-11-13T05:05:29.928Z,100296.97
2022-11-13T05:10:33.094Z,100302.25
2022-11-13T05:15:37.654Z,100294.41
2022-11-13T05:20:40.905Z,100288.50
2022-11-13T05:25:44.069Z,100290.31
2022-11-13T05:30:48.636Z,100292.13
2022-11-13T05:35:51.767Z,100292.22
2022-11-13T05:40:54.941Z,100286.25
2022-11-13T05:46:03.872Z,100293.22
2022-11-13T05:51:08.534Z,100290.66
2022-11-13T05:56:13.239Z,100288.03
2022-11-13T06:01:19.977Z,100286.50
2022-11-13T06:06:24.453Z,100284.72
2022-11-13T06:11:29.909Z,100291.00
2022-11-13T06:16:37.839Z,100296.94
2022-11-13T06:21:42.125Z,100296.09
2022-11-13T06:26:45.242Z,100296.25
2022-11-13T06:31:49.810Z,100295.25
2022-11-13T06:36:52.925Z,100296.09
2022-11-13T06:41:56.069Z,100301.34
2022-11-13T06:47:00.740Z,100298.06
2022-11-13T06:52:03.892Z,100309.38
2022-11-13T06:57:07.059Z,100312.75
2022-11-13T07:02:12.916Z,100317.06
2022-11-13T07:07:16.339Z,100311.91
2022-11-13T07:12:19.537Z,100317.00
2022-11-13T07:17:24.103Z,100321.28
2022-11-13T07:22:27.258Z,100315.25
2022-11-13T07:27:30.403Z,100325.94
2022-11-13T07:32:34.928Z,100331.44
2022-11-13T07:37:38.158Z,100340.88
2022-11-13T07:42:41.455Z,100344.25
2022-11-13T07:47:46.021Z,100349.31
2022-11-13T07:52:49.142Z,100350.16
2022-11-13T07:57:52.323Z,100350.13
2022-11-13T08:02:58.091Z,100354.22
2022-11-13T08:08:01.321Z,100356.63
2022-11-13T08:13:06.539Z,100352.13
2022-11-13T08:18:11.265Z,100355.50
2022-11-13T08:23:14.388Z,100358.97
2022-11-13T08:28:17.519Z,100371.78
2022-11-13T08:33:22.123Z,100362.34
2022-11-13T08:38:26.109Z,100370.13
2022-11-13T08:43:29.430Z,100379.88
2022-11-13T08:48:34.233Z,100385.44
2022-11-13T08:53:37.406Z,100371.28
2022-11-13T08:58:40.542Z,100366.97
2022-11-13T09:03:45.178Z,100365.13
2022-11-13T09:08:48.365Z,100363.97
2022-11-13T09:13:53.419Z,100358.47
2022-11-13T09:18:58.462Z,100360.81
2022-11-13T09:24:01.612Z,100353.50
2022-11-13T09:29:05.590Z,100352.13
2022-11-13T09:34:10.431Z,100352.59
2022-11-13T09:39:13.588Z,100345.28
2022-11-13T09:44:21.757Z,100337.63
2022-11-13T09:49:29.897Z,100351.41
2022-11-13T09:54:33.141Z,100332.66
2022-11-13T09:59:41.083Z,100340.81
2022-11-13T10:04:57.894Z,100326.03
2022-11-13T10:10:18.636Z,100334.69
2022-11-13T10:15:22.384Z,100325.91
2022-11-13T10:20:34.720Z,100322.38
2022-11-13T10:25:39.401Z,100321.06
2022-11-13T10:30:42.721Z,100317.66
2022-11-13T10:35:53.301Z,100314.19
2022-11-13T10:41:08.218Z,100311.06
2022-11-13T10:46:19.986Z,100294.56
2022-11-13T10:51:27.723Z,100288.50
2022-11-13T10:56:32.773Z,100278.22
2022-11-13T11:01:35.978Z,100268.19
2022-11-13T11:07:19.177Z,100274.91
2022-11-13T11:12:19.208Z,100262.38
2022-11-13T11:17:27.516Z,100270.31
2022-11-13T11:22:35.505Z,100253.78
2022-11-13T11:27:44.679Z,100257.00
2022-11-13T11:32:53.379Z,100250.69
2022-11-13T11:38:04.163Z,100233.41
2022-11-13T11:43:17.445Z,100234.19
2022-11-13T11:48:22.879Z,100210.09
2022-11-13T11:53:40.916Z,100212.09
2022-11-13T11:59:14.639Z,100201.81
2022-11-13T12:04:30.006Z,100190.72
2022-11-13T12:09:37.969Z,100169.47
2022-11-13T12:14:52.489Z,100168.72
2022-11-13T12:20:04.007Z,100165.41
2022-11-13T12:25:19.964Z,100159.69
2022-11-13T12:30:26.178Z,100153.22
2022-11-13T12:35:30.601Z,100159.34
2022-11-13T12:40:44.657Z,100161.34
2022-11-13T12:45:53.591Z,100154.31
2022-11-13T12:51:01.400Z,100153.25
2022-11-13T12:56:06.531Z,100139.22
2022-11-13T13:01:19.501Z,100137.34
2022-11-13T13:06:42.693Z,100125.00
2022-11-13T13:11:54.656Z,100112.22
2022-11-13T13:17:06.945Z,100100.00
2022-11-13T13:22:12.445Z,100086.28
2022-11-13T13:27:25.922Z,100084.50
2022-11-13T13:32:37.546Z,100073.09
2022-11-13T13:37:48.617Z,100068.16
2022-11-13T13:43:08.349Z,100060.41
2022-11-13T13:48:13.696Z,100049.03
2022-11-13T13:53:22.353Z,100051.88
2022-11-13T13:58:30.884Z,100049.22
2022-11-13T14:03:34.335Z,100048.84
2022-11-13T14:08:37.485Z,100048.94
2022-11-13T14:13:42.099Z,100044.06
2022-11-13T14:18:45.350Z,100046.16
2022-11-13T14:23:50.723Z,100048.66
2022-11-13T14:28:59.312Z,100041.34
2022-11-13T14:34:09.637Z,100041.72
2022-11-13T14:39:26.639Z,100050.50
2022-11-13T14:44:33.600Z,100045.13
2022-11-13T14:49:38.819Z,100039.88
2022-11-13T14:55:13.019Z,100028.38
2022-11-13T15:00:14.604Z,100032.81
2022-11-13T15:05:17.750Z,100020.03
2022-11-13T15:10:23.163Z,100014.91
2022-11-13T15:15:31.429Z,100011.34
2022-11-13T15:20:34.838Z,100013.31
2022-11-13T15:25:37.990Z,100017.47
2022-11-13T15:30:42.523Z,99998.34
2022-11-13T15:35:45.776Z,100005.91
2022-11-13T15:40:49.663Z,99995.50
2022-11-13T15:45:54.206Z,99998.94
2022-11-13T15:50:57.434Z,99999.56
2022-11-13T15:56:03.273Z,99993.94
2022-11-13T16:01:09.467Z,100016.13
2022-11-13T16:06:13.925Z,100016.75
2022-11-13T16:11:18.136Z,100014.66
2022-11-13T16:16:24.869Z,100020.56
2022-11-13T16:21:27.992Z,100019.66
2022-11-13T16:26:31.465Z,100022.19
2022-11-13T16:31:36.005Z,100024.16
2022-11-13T16:36:39.046Z,100024.66
2022-11-13T16:41:42.166Z,100018.81
2022-11-13T16:46:48.220Z,100013.63
2022-11-13T16:51:52.187Z,100006.94
2022-11-13T16:56:55.379Z,100013.28
2022-11-13T17:02:00.086Z,100003.38
2022-11-13T17:07:03.664Z,100010.53
2022-11-13T17:12:07.188Z,100005.25
2022-11-13T17:17:14.518Z,100007.91
2022-11-13T17:22:18.094Z,100008.88
2022-11-13T17:27:21.255Z,100006.97
2022-11-13T17:32:25.894Z,100015.81
2022-11-13T17:37:28.789Z,100027.44
2022-11-13T17:42:31.898Z,100022.47
2022-11-13T17:47:36.490Z,100035.00
2022-11-13T17:52:39.388Z,100045.19
2022-11-13T17:57:42.574Z,100048.72
2022-11-13T18:02:47.308Z,100053.34
2022-11-13T18:07:50.425Z,100065.03
2022-11-13T18:12:53.547Z,100083.28
2022-11-13T18:17:58.092Z,100088.94
2022-11-13T18:23:01.285Z,100096.25
2022-11-13T18:28:04.461Z,100094.94
2022-11-13T18:33:09.020Z,100090.34
2022-11-13T18:38:12.160Z,100089.50
2022-11-13T18:43:16.392Z,100082.53
2022-11-13T18:48:20.966Z,100083.38
2022-11-13T18:53:24.198Z,100091.28
2022-11-13T18:58:27.473Z,100092.22
2022-11-13T19:03:32.069Z,100100.66
2022-11-13T19:08:39.463Z,100092.91
2022-11-13T19:13:45.909Z,100100.75
2022-11-13T19:18:54.628Z,100103.84
2022-11-13T19:23:58.590Z,100089.09
2022-11-13T19:29:01.731Z,100101.44
2022-11-13T19:34:08.409Z,100104.16
2022-11-13T19:39:11.820Z,100097.19
2022-11-13T19:44:15.120Z,100101.09
2022-11-13T19:49:20.184Z,100106.22
2022-11-13T19:54:23.339Z,100103.47
2022-11-13T19:59:26.543Z,100087.66
2022-11-13T20:04:31.155Z,100094.75
2022-11-13T20:09:34.360Z,100094.66
2022-11-13T20:14:38.702Z,100096.34
2022-11-13T20:19:43.395Z,100097.78
2022-11-13T20:24:46.561Z,100094.97
2022-11-13T20:29:49.968Z,100102.13
2022-11-13T20:34:54.579Z,100092.78
2022-11-13T20:39:57.786Z,100102.13
2022-11-13T20:45:01.410Z,100106.38
2022-11-13T20:50:06.691Z,100118.47
2022-11-13T20:55:10.564Z,100106.97
2022-11-13T21:00:14.308Z,100113.94
2022-11-13T21:05:18.993Z,100111.47
2022-11-13T21:10:21.852Z,100103.94
2022-11-13T21:15:25.011Z,100110.13
2022-11-13T21:20:29.549Z,100093.13
2022-11-13T21:25:33.045Z,100094.28
2022-11-13T21:30:36.169Z,100100.56
2022-11-13T21:35:40.690Z,100100.56
2022-11-13T21:40:44.587Z,100095.28
2022-11-13T21:45:47.726Z,100091.56
2022-11-13T21:50:52.371Z,100094.28
2022-11-13T21:55:55.256Z,100099.03
2022-11-13T22:00:58.685Z,100101.50
2022-11-13T22:06:21.502Z,100092.06
2022-11-13T22:11:25.208Z,100086.09
2022-11-13T22:16:31.422Z,100069.44
2022-11-13T22:21:36.935Z,100072.84
2022-11-13T22:26:41.950Z,100070.97
2022-11-13T22:31:45.577Z,100065.53
2022-11-13T22:36:50.114Z,100066.22
2022-11-13T22:41:53.280Z,100080.22
2022-11-13T22:46:56.450Z,100089.38
2022-11-13T22:52:00.968Z,100088.13
2022-11-13T22:57:04.296Z,100103.78
2022-11-13T23:02:07.450Z,100129.88
2022-11-13T23:07:12.001Z,100160.34
2022-11-13T23:12:15.170Z,100163.13
2022-11-13T23:17:18.281Z,100169.44
2022-11-13T23:22:22.819Z,100161.78
2022-11-13T23:27:25.970Z,100166.19
2022-11-13T23:32:29.136Z,100168.91
2022-11-13T23:37:33.662Z,100170.44
2022-11-13T23:42:54.167Z,100190.41
2022-11-13T23:47:57.726Z,100200.03
2022-11-13T23:53:02.278Z,100199.41
2022-11-13T23:58:07.573Z,100202.34
